sensor_id;sensor_type;location;lat;lon;timestamp;pressure;altitude;pressure_sealevel;temperature;humidity
51928;BME280;37953;52.806;18.270;2022-12-11T00:02:00;99958.81;;;1.32;100.00
51928;BME280;37953;52.806;18.270;2022-12-11T00:04:25;99954.47;;;1.30;100.00
51928;BME280;37953;52.806;18.270;2022-12-11T00:06:52;99953.63;;;1.31;100.00
51928;BME280;37953;52.806;18.270;2022-12-11T00:09:19;99955.25;;;1.27;100.00
51928;BME280;37953;52.806;18.270;2022-12-11T00:11:52;99957.88;;;1.30;100.00
51928;BME280;37953;52.806;18.270;2022-12-11T00:14:17;99958.81;;;1.32;100.00
51928;BME280;37953;52.806;18.270;2022-12-11T00:16:47;99949.34;;;1.30;100.00
51928;BME280;37953;52.806;18.270;2022-12-11T00:19:15;99952.75;;;1.30;100.00
51928;BME280;37953;52.806;18.270;2022-12-11T00:21:41;99956.19;;;1.31;100.00
51928;BME280;37953;52.806;18.270;2022-12-11T00:24:07;99950.16;;;1.29;100.00
51928;BME280;37953;52.806;18.270;2022-12-11T00:26:34;99951.84;;;1.28;100.00
51928;BME280;37953;52.806;18.270;2022-12-11T00:29:01;99948.38;;;1.26;100.00
51928;BME280;37953;52.806;18.270;2022-12-11T00:31:27;99939.00;;;1.27;100.00
51928;BME280;37953;52.806;18.270;2022-12-11T00:33:53;99953.50;;;1.26;100.00
51928;BME280;37953;52.806;18.270;2022-12-11T00:36:24;99949.22;;;1.25;100.00
51928;BME280;37953;52.806;18.270;2022-12-11T00:38:51;99945.63;;;1.20;100.00
51928;BME280;37953;52.806;18.270;2022-12-11T00:41:18;99950.78;;;1.21;100.00
51928;BME280;37953;52.806;18.270;2022-12-11T00:43:44;99951.59;;;1.20;100.00
51928;BME280;37953;52.806;18.270;2022-12-11T00:46:11;99950.66;;;1.18;100.00
51928;BME280;37953;52.806;18.270;2022-12-11T00:48:37;99950.59;;;1.15;100.00
51928;BME280;37953;52.806;18.270;2022-12-11T00:51:04;99948.88;;;1.14;100.00
51928;BME280;37953;52.806;18.270;2022-12-11T00:53:30;99947.94;;;1.12;100.00
51928;BME280;37953;52.806;18.270;2022-12-11T00:55:56;99942.78;;;1.11;100.00
51928;BME280;37953;52.806;18.270;2022-12-11T00:58:22;99951.31;;;1.11;100.00
51928;BME280;37953;52.806;18.270;2022-12-11T01:00:48;99946.13;;;1.10;100.00
51928;BME280;37953;52.806;18.270;2022-12-11T01:03:15;99947.03;;;1.10;100.00
51928;BME280;37953;52.806;18.270;2022-12-11T01:05:50;99941.00;;;1.10;100.00
51928;BME280;37953;52.806;18.270;2022-12-11T01:08:17;99944.41;;;1.09;100.00
51928;BME280;37953;52.806;18.270;2022-12-11T01:10:43;99942.66;;;1.08;100.00
51928;BME280;37953;52.806;18.270;2022-12-11T01:13:09;99945.19;;;1.06;100.00
51928;BME280;37953;52.806;18.270;2022-12-11T01:15:41;99940.06;;;1.06;100.00
51928;BME280;37953;52.806;18.270;2022-12-11T01:18:09;99942.63;;;1.06;100.00
51928;BME280;37953;52.806;18.270;2022-12-11T01:20:37;99945.19;;;1.06;100.00
51928;BME280;37953;52.806;18.270;2022-12-11T01:23:11;99934.03;;;1.04;100.00
51928;BME280;37953;52.806;18.270;2022-12-11T01:25:41;99929.63;;;1.00;100.00
51928;BME280;37953;52.806;18.270;2022-12-11T01:28:08;99933.97;;;1.02;100.00
51928;BME280;37953;52.806;18.270;2022-12-11T01:30:34;99937.31;;;1.00;100.00
51928;BME280;37953;52.806;18.270;2022-12-11T01:33:01;99933.84;;;0.99;100.00
51928;BME280;37953;52.806;18.270;2022-12-11T01:35:27;99944.00;;;0.96;100.00
51928;BME280;37953;52.806;18.270;2022-12-11T01:37:53;99943.13;;;0.96;100.00
51928;BME280;37953;52.806;18.270;2022-12-11T01:40:20;99945.63;;;0.94;100.00
51928;BME280;37953;52.806;18.270;2022-12-11T01:42:46;99943.91;;;0.93;100.00
51928;BME280;37953;52.806;18.270;2022-12-11T01:50:30;99934.50;;;0.92;100.00
51928;BME280;37953;52.806;18.270;2022-12-11T01:53:08;99931.06;;;0.92;100.00
51928;BME280;37953;52.806;18.270;2022-12-11T01:55:36;99927.53;;;0.88;100.00
51928;BME280;37953;52.806;18.270;2022-12-11T01:58:03;99929.22;;;0.88;100.00
51928;BME280;37953;52.806;18.270;2022-12-11T02:00:36;99933.38;;;0.84;100.00
51928;BME280;37953;52.806;18.270;2022-12-11T02:03:02;99930.75;;;0.82;100.00
51928;BME280;37953;52.806;18.270;2022-12-11T02:05:28;99938.34;;;0.79;100.00
51928;BME280;37953;52.806;18.270;2022-12-11T02:07:57;99946.88;;;0.80;100.00
51928;BME280;37953;52.806;18.270;2022-12-11T02:10:42;99936.59;;;0.78;100.00
51928;BME280;37953;52.806;18.270;2022-12-11T02:13:42;99945.19;;;0.80;100.00
51928;BME280;37953;52.806;18.270;2022-12-11T02:16:29;99948.63;;;0.81;100.00
51928;BME280;37953;52.806;18.270;2022-12-11T02:22:05;99933.22;;;0.79;100.00
51928;BME280;37953;52.806;18.270;2022-12-11T02:27:22;99928.09;;;0.79;100.00
51928;BME280;37953;52.806;18.270;2022-12-11T02:32:32;99906.84;;;0.80;100.00
51928;BME280;37953;52.806;18.270;2022-12-11T02:35:12;99910.22;;;0.79;100.00
51928;BME280;37953;52.806;18.270;2022-12-11T02:37:43;99910.16;;;0.78;100.00
51928;BME280;37953;52.806;18.270;2022-12-11T02:40:12;99904.13;;;0.76;100.00
51928;BME280;37953;52.806;18.270;2022-12-11T02:42:41;99898.13;;;0.75;100.00
51928;BME280;37953;52.806;18.270;2022-12-11T02:45:14;99905.81;;;0.75;100.00
51928;BME280;37953;52.806;18.270;2022-12-11T02:47:42;99897.16;;;0.72;100.00
51928;BME280;37953;52.806;18.270;2022-12-11T02:50:14;99903.19;;;0.74;100.00
51928;BME280;37953;52.806;18.270;2022-12-11T02:52:43;99899.69;;;0.70;100.00
51928;BME280;37953;52.806;18.270;2022-12-11T02:55:11;99894.56;;;0.70;100.00
51928;BME280;37953;52.806;18.270;2022-12-11T02:57:55;99891.19;;;0.71;100.00
51928;BME280;37953;52.806;18.270;2022-12-11T03:00:38;99882.59;;;0.69;100.00
51928;BME280;37953;52.806;18.270;2022-12-11T03:03:04;99877.44;;;0.68;100.00
51928;BME280;37953;52.806;18.270;2022-12-11T03:05:30;99886.78;;;0.67;100.00
51928;BME280;37953;52.806;18.270;2022-12-11T03:08:00;99889.34;;;0.67;100.00
51928;BME280;37953;52.806;18.270;2022-12-11T03:10:26;99883.38;;;0.67;100.00
51928;BME280;37953;52.806;18.270;2022-12-11T03:12:54;99880.81;;;0.67;100.00
51928;BME280;37953;52.806;18.270;2022-12-11T03:18:16;99876.63;;;0.69;100.00
51928;BME280;37953;52.806;18.270;2022-12-11T03:20:46;99881.66;;;0.66;100.00
51928;BME280;37953;52.806;18.270;2022-12-11T03:26:00;99876.53;;;0.66;100.00
51928;BME280;37953;52.806;18.270;2022-12-11T03:31:26;99875.63;;;0.64;100.00
51928;BME280;37953;52.806;18.270;2022-12-11T03:34:18;99878.97;;;0.63;100.00
51928;BME280;37953;52.806;18.270;2022-12-11T03:36:48;99879.81;;;0.62;100.00
51928;BME280;37953;52.806;18.270;2022-12-11T03:39:24;99879.03;;;0.64;100.00
51928;BME280;37953;52.806;18.270;2022-12-11T03:41:52;99875.63;;;0.64;100.00
51928;BME280;37953;52.806;18.270;2022-12-11T03:44:21;99878.16;;;0.64;100.00
51928;BME280;37953;52.806;18.270;2022-12-11T03:46:55;99874.72;;;0.63;100.00
51928;BME280;37953;52.806;18.270;2022-12-11T03:49:26;99867.88;;;0.62;100.00
51928;BME280;37953;52.806;18.270;2022-12-11T03:51:54;99867.88;;;0.62;100.00
51928;BME280;37953;52.806;18.270;2022-12-11T03:54:23;99871.25;;;0.61;100.00
51928;BME280;37953;52.806;18.270;2022-12-11T03:56:53;99871.25;;;0.61;100.00
51928;BME280;37953;52.806;18.270;2022-12-11T03:59:24;99876.34;;;0.59;100.00
51928;BME280;37953;52.806;18.270;2022-12-11T04:01:50;99871.16;;;0.58;100.00
51928;BME280;37953;52.806;18.270;2022-12-11T04:04:16;99873.59;;;0.55;100.00
51928;BME280;37953;52.806;18.270;2022-12-11T04:06:42;99870.94;;;0.52;100.00
51928;BME280;37953;52.806;18.270;2022-12-11T04:09:09;99872.69;;;0.53;100.00
51928;BME280;37953;52.806;18.270;2022-12-11T04:11:34;99876.94;;;0.52;100.00
51928;BME280;37953;52.806;18.270;2022-12-11T04:14:02;99871.81;;;0.52;100.00
51928;BME280;37953;52.806;18.270;2022-12-11T04:16:48;99870.09;;;0.51;100.00
51928;BME280;37953;52.806;18.270;2022-12-11T04:19:14;99867.53;;;0.51;100.00
51928;BME280;37953;52.806;18.270;2022-12-11T04:21:58;99858.13;;;0.50;100.00
51928;BME280;37953;52.806;18.270;2022-12-11T04:24:43;99867.41;;;0.48;100.00
51928;BME280;37953;52.806;18.270;2022-12-11T04:27:09;99866.56;;;0.48;100.00
51928;BME280;37953;52.806;18.270;2022-12-11T04:29:35;99864.00;;;0.48;100.00
51928;BME280;37953;52.806;18.270;2022-12-11T04:32:01;99861.38;;;0.46;100.00
51928;BME280;37953;52.806;18.270;2022-12-11T04:34:27;99861.38;;;0.46;100.00
51928;BME280;37953;52.806;18.270;2022-12-11T04:36:53;99861.34;;;0.45;100.00
51928;BME280;37953;52.806;18.270;2022-12-11T04:39:19;99869.81;;;0.44;100.00
51928;BME280;37953;52.806;18.270;2022-12-11T04:41:44;99868.03;;;0.41;100.00
51928;BME280;37953;52.806;18.270;2022-12-11T04:44:10;99867.13;;;0.39;100.00
51928;BME280;37953;52.806;18.270;2022-12-11T04:46:36;99869.72;;;0.40;100.00
51928;BME280;37953;52.806;18.270;2022-12-11T04:49:02;99866.28;;;0.40;100.00
51928;BME280;37953;52.806;18.270;2022-12-11T04:51:28;99869.72;;;0.40;100.00
51928;BME280;37953;52.806;18.270;2022-12-11T04:53:54;99865.34;;;0.36;100.00
51928;BME280;37953;52.806;18.270;2022-12-11T04:56:20;99867.06;;;0.37;100.00
51928;BME280;37953;52.806;18.270;2022-12-11T04:58:47;99873.75;;;0.34;100.00
51928;BME280;37953;52.806;18.270;2022-12-11T05:01:18;99873.84;;;0.37;100.00
51928;BME280;37953;52.806;18.270;2022-12-11T05:03:50;99871.25;;;0.35;100.00
51928;BME280;37953;52.806;18.270;2022-12-11T05:06:15;99870.31;;;0.33;100.00
51928;BME280;37953;52.806;18.270;2022-12-11T05:08:42;99869.47;;;0.33;100.00
51928;BME280;37953;52.806;18.270;2022-12-11T05:11:11;99864.34;;;0.33;100.00
51928;BME280;37953;52.806;18.270;2022-12-11T05:13:38;99862.63;;;0.32;100.00
51928;BME280;37953;52.806;18.270;2022-12-11T05:16:06;99855.81;;;0.32;100.00
51928;BME280;37953;52.806;18.270;2022-12-11T05:18:33;99854.19;;;0.34;100.00
51928;BME280;37953;52.806;18.270;2022-12-11T05:21:05;99845.63;;;0.34;100.00
51928;BME280;37953;52.806;18.270;2022-12-11T05:23:32;99844.00;;;0.36;100.00
51928;BME280;37953;52.806;18.270;2022-12-11T05:26:06;99845.69;;;0.35;100.00
51928;BME280;37953;52.806;18.270;2022-12-11T05:28:35;99847.31;;;0.33;100.00
51928;BME280;37953;52.806;18.270;2022-12-11T05:31:12;99830.38;;;0.35;100.00
51928;BME280;37953;52.806;18.270;2022-12-11T05:33:38;99825.16;;;0.32;100.00
51928;BME280;37953;52.806;18.270;2022-12-11T05:36:06;99826.88;;;0.33;100.00
51928;BME280;37953;52.806;18.270;2022-12-11T05:38:32;99824.31;;;0.32;100.00
51928;BME280;37953;52.806;18.270;2022-12-11T05:41:04;99822.56;;;0.31;100.00
51928;BME280;37953;52.806;18.270;2022-12-11T05:43:32;99812.25;;;0.28;100.00
51928;BME280;37953;52.806;18.270;2022-12-11T05:46:26;99818.28;;;0.30;100.00
51928;BME280;37953;52.806;18.270;2022-12-11T05:48:57;99814.75;;;0.26;100.00
51928;BME280;37953;52.806;18.270;2022-12-11T05:51:24;99817.19;;;0.23;100.00
51928;BME280;37953;52.806;18.270;2022-12-11T05:53:51;99813.69;;;0.21;100.00
51928;BME280;37953;52.806;18.270;2022-12-11T05:56:20;99811.22;;;0.23;100.00
51928;BME280;37953;52.806;18.270;2022-12-11T05:58:47;99807.78;;;0.22;100.00
51928;BME280;37953;52.806;18.270;2022-12-11T06:01:21;99805.25;;;0.22;100.00
51928;BME280;37953;52.806;18.270;2022-12-11T06:03:48;99807.78;;;0.22;100.00
51928;BME280;37953;52.806;18.270;2022-12-11T06:06:14;99809.47;;;0.22;100.00
51928;BME280;37953;52.806;18.270;2022-12-11T06:08:40;99806.94;;;0.22;100.00
51928;BME280;37953;52.806;18.270;2022-12-11T06:11:06;99809.47;;;0.22;100.00
51928;BME280;37953;52.806;18.270;2022-12-11T06:13:33;99814.59;;;0.22;100.00
51928;BME280;37953;52.806;18.270;2022-12-11T06:16:04;99808.66;;;0.23;100.00
51928;BME280;37953;52.806;18.270;2022-12-11T06:18:39;99822.28;;;0.23;100.00
51928;BME280;37953;52.806;18.270;2022-12-11T06:21:11;99818.31;;;0.31;100.00
51928;BME280;37953;52.806;18.270;2022-12-11T06:23:38;99821.56;;;0.27;100.00
51928;BME280;37953;52.806;18.270;2022-12-11T06:26:11;99818.09;;;0.25;100.00
51928;BME280;37953;52.806;18.270;2022-12-11T06:28:38;99818.94;;;0.24;100.00
51928;BME280;37953;52.806;18.270;2022-12-11T06:31:04;99829.16;;;0.24;100.00
51928;BME280;37953;52.806;18.270;2022-12-11T06:33:31;99830.88;;;0.25;100.00
51928;BME280;37953;52.806;18.270;2022-12-11T06:36:00;99830.84;;;0.24;100.00
51928;BME280;37953;52.806;18.270;2022-12-11T06:38:27;99830.78;;;0.22;100.00
51928;BME280;37953;52.806;18.270;2022-12-11T06:40:55;99818.72;;;0.18;100.00
51928;BME280;37953;52.806;18.270;2022-12-11T06:43:27;99827.31;;;0.20;100.00
51928;BME280;37953;52.806;18.270;2022-12-11T06:45:53;99823.88;;;0.19;100.00
51928;BME280;37953;52.806;18.270;2022-12-11T06:48:19;99840.00;;;0.18;100.00
51928;BME280;37953;52.806;18.270;2022-12-11T06:50:45;99839.94;;;0.17;100.00
51928;BME280;37953;52.806;18.270;2022-12-11T06:53:12;99839.09;;;0.16;100.00
51928;BME280;37953;52.806;18.270;2022-12-11T06:55:39;99839.94;;;0.15;100.00
51928;BME280;37953;52.806;18.270;2022-12-11T06:58:07;99830.41;;;0.11;100.00
51928;BME280;37953;52.806;18.270;2022-12-11T07:00:37;99835.59;;;0.13;100.00
51928;BME280;37953;52.806;18.270;2022-12-11T07:03:04;99823.63;;;0.12;100.00
51928;BME280;37953;52.806;18.270;2022-12-11T07:05:31;99832.13;;;0.12;100.00
51928;BME280;37953;52.806;18.270;2022-12-11T07:07:57;99832.13;;;0.12;100.00
51928;BME280;37953;52.806;18.270;2022-12-11T07:10:25;99832.19;;;0.14;100.00
51928;BME280;37953;52.806;18.270;2022-12-11T07:12:52;99824.47;;;0.12;100.00
51928;BME280;37953;52.806;18.270;2022-12-11T07:15:19;99822.81;;;0.13;100.00
51928;BME280;37953;52.806;18.270;2022-12-11T07:17:45;99816.00;;;0.13;100.00
51928;BME280;37953;52.806;18.270;2022-12-11T07:20:11;99819.38;;;0.12;100.00
51928;BME280;37953;52.806;18.270;2022-12-11T07:22:37;99821.06;;;0.12;100.00
51928;BME280;37953;52.806;18.270;2022-12-11T07:25:03;99829.56;;;0.11;100.00
51928;BME280;37953;52.806;18.270;2022-12-11T07:27:36;99821.00;;;0.10;100.00
51928;BME280;37953;52.806;18.270;2022-12-11T07:30:02;99818.44;;;0.10;100.00
51928;BME280;37953;52.806;18.270;2022-12-11T07:32:29;99821.91;;;0.11;100.00
51928;BME280;37953;52.806;18.270;2022-12-11T07:34:54;99818.41;;;0.09;100.00
51928;BME280;37953;52.806;18.270;2022-12-11T07:37:21;99820.91;;;0.07;100.00
51928;BME280;37953;52.806;18.270;2022-12-11T07:39:46;99823.41;;;0.06;100.00
51928;BME280;37953;52.806;18.270;2022-12-11T07:42:13;99826.66;;;0.02;100.00
51928;BME280;37953;52.806;18.270;2022-12-11T07:44:39;99822.38;;;0.01;100.00
51928;BME280;37953;52.806;18.270;2022-12-11T07:47:05;99824.88;;;-0.01;100.00
51928;BME280;37953;52.806;18.270;2022-12-11T07:49:31;99825.72;;;-0.02;100.00
51928;BME280;37953;52.806;18.270;2022-12-11T07:51:57;99828.25;;;-0.02;100.00
51928;BME280;37953;52.806;18.270;2022-12-11T07:54:23;99825.72;;;-0.02;100.00
51928;BME280;37953;52.806;18.270;2022-12-11T07:56:49;99823.97;;;-0.03;100.00
51928;BME280;37953;52.806;18.270;2022-12-11T07:59:15;99812.81;;;-0.05;100.00
51928;BME280;37953;52.806;18.270;2022-12-11T08:01:42;99823.09;;;-0.04;100.00
51928;BME280;37953;52.806;18.270;2022-12-11T08:04:10;99813.66;;;-0.06;100.00
51928;BME280;37953;52.806;18.270;2022-12-11T08:06:42;99818.75;;;-0.06;100.00
51928;BME280;37953;52.806;18.270;2022-12-11T08:09:10;99816.94;;;-0.09;100.00
51928;BME280;37953;52.806;18.270;2022-12-11T08:11:36;99812.59;;;-0.11;100.00
51928;BME280;37953;52.806;18.270;2022-12-11T08:14:03;99817.63;;;-0.14;100.00
51928;BME280;37953;52.806;18.270;2022-12-11T08:16:31;99821.81;;;-0.15;100.00
51928;BME280;37953;52.806;18.270;2022-12-11T08:18:58;99815.06;;;-0.14;100.00
51928;BME280;37953;52.806;18.270;2022-12-11T08:21:26;99821.03;;;-0.14;100.00
51928;BME280;37953;52.806;18.270;2022-12-11T08:23:59;99821.91;;;-0.13;100.00
51928;BME280;37953;52.806;18.270;2022-12-11T08:26:27;99821.03;;;-0.14;100.00
51928;BME280;37953;52.806;18.270;2022-12-11T08:28:54;99816.72;;;-0.15;100.00
51928;BME280;37953;52.806;18.270;2022-12-11T08:31:21;99818.41;;;-0.15;100.00
51928;BME280;37953;52.806;18.270;2022-12-11T08:33:53;99812.50;;;-0.14;100.00
51928;BME280;37953;52.806;18.270;2022-12-11T08:36:21;99814.13;;;-0.16;100.00
51928;BME280;37953;52.806;18.270;2022-12-11T08:38:48;99820.00;;;-0.19;100.00
51928;BME280;37953;52.806;18.270;2022-12-11T08:41:20;99818.38;;;-0.17;100.00
51928;BME280;37953;52.806;18.270;2022-12-11T08:43:49;99818.19;;;-0.22;100.00
51928;BME280;37953;52.806;18.270;2022-12-11T08:46:24;99814.78;;;-0.22;100.00
51928;BME280;37953;52.806;18.270;2022-12-11T08:48:51;99819.03;;;-0.23;100.00
51928;BME280;37953;52.806;18.270;2022-12-11T08:51:20;99813.84;;;-0.24;100.00
51928;BME280;37953;52.806;18.270;2022-12-11T08:53:48;99818.97;;;-0.24;100.00
51928;BME280;37953;52.806;18.270;2022-12-11T08:56:16;99818.16;;;-0.23;100.00
51928;BME280;37953;52.806;18.270;2022-12-11T08:58:49;99825.84;;;-0.22;100.00
51928;BME280;37953;52.806;18.270;2022-12-11T09:01:23;99829.31;;;-0.21;100.00
51928;BME280;37953;52.806;18.270;2022-12-11T09:03:52;99822.38;;;-0.24;100.00
51928;BME280;37953;52.806;18.270;2022-12-11T09:06:20;99819.81;;;-0.24;100.00
51928;BME280;37953;52.806;18.270;2022-12-11T09:08:53;99815.63;;;-0.23;100.00
51928;BME280;37953;52.806;18.270;2022-12-11T09:11:23;99813.09;;;-0.22;100.00
51928;BME280;37953;52.806;18.270;2022-12-11T09:13:49;99816.63;;;-0.18;100.00
51928;BME280;37953;52.806;18.270;2022-12-11T09:16:17;99812.44;;;-0.16;100.00
51928;BME280;37953;52.806;18.270;2022-12-11T09:18:45;99805.66;;;-0.15;100.00
51928;BME280;37953;52.806;18.270;2022-12-11T09:21:14;99806.47;;;-0.16;100.00
51928;BME280;37953;52.806;18.270;2022-12-11T09:23:41;99799.63;;;-0.17;100.00
51928;BME280;37953;52.806;18.270;2022-12-11T09:26:11;99797.03;;;-0.19;100.00
51928;BME280;37953;52.806;18.270;2022-12-11T09:28:38;99792.66;;;-0.22;100.00
51928;BME280;37953;52.806;18.270;2022-12-11T09:31:12;99804.63;;;-0.21;100.00
51928;BME280;37953;52.806;18.270;2022-12-11T09:33:38;99794.31;;;-0.24;100.00
51928;BME280;37953;52.806;18.270;2022-12-11T09:36:05;99792.56;;;-0.25;100.00
51928;BME280;37953;52.806;18.270;2022-12-11T09:38:32;99790.09;;;-0.23;100.00
51928;BME280;37953;52.806;18.270;2022-12-11T09:40:59;99781.59;;;-0.22;100.00
51928;BME280;37953;52.806;18.270;2022-12-11T09:45:56;99774.81;;;-0.22;100.00
51928;BME280;37953;52.806;18.270;2022-12-11T09:48:24;99771.44;;;-0.21;100.00
51928;BME280;37953;52.806;18.270;2022-12-11T09:50:53;99760.31;;;-0.23;100.00
51928;BME280;37953;52.806;18.270;2022-12-11T09:53:29;99763.72;;;-0.22;100.00
51928;BME280;37953;52.806;18.270;2022-12-11T09:56:38;99761.13;;;-0.24;100.00
51928;BME280;37953;52.806;18.270;2022-12-11T09:59:36;99758.63;;;-0.22;100.00
51928;BME280;37953;52.806;18.270;2022-12-11T10:08:38;99733.00;;;-0.25;100.00
51928;BME280;37953;52.806;18.270;2022-12-11T10:19:32;99729.19;;;-0.36;100.00
51928;BME280;37953;52.806;18.270;2022-12-11T10:22:00;99730.03;;;-0.37;100.00
51928;BME280;37953;52.806;18.270;2022-12-11T10:24:49;99717.38;;;-0.34;100.00
51928;BME280;37953;52.806;18.270;2022-12-11T10:27:29;99717.38;;;-0.34;100.00
51928;BME280;37953;52.806;18.270;2022-12-11T10:37:55;99693.69;;;-0.30;100.00
51928;BME280;37953;52.806;18.270;2022-12-11T10:40:24;99688.53;;;-0.32;100.00
51928;BME280;37953;52.806;18.270;2022-12-11T10:42:54;99689.34;;;-0.33;100.00
51928;BME280;37953;52.806;18.270;2022-12-11T10:45:20;99687.63;;;-0.34;100.00
51928;BME280;37953;52.806;18.270;2022-12-11T10:47:46;99691.84;;;-0.34;100.00
51928;BME280;37953;52.806;18.270;2022-12-11T10:50:25;99690.22;;;-0.32;100.00
51928;BME280;37953;52.806;18.270;2022-12-11T10:52:52;99691.06;;;-0.33;100.00
51928;BME280;37953;52.806;18.270;2022-12-11T10:55:24;99685.97;;;-0.32;100.00
51928;BME280;37953;52.806;18.270;2022-12-11T10:57:59;99685.09;;;-0.32;100.00
51928;BME280;37953;52.806;18.270;2022-12-11T11:00:37;99674.91;;;-0.32;100.00
51928;BME280;37953;52.806;18.270;2022-12-11T11:03:27;99675.03;;;-0.29;100.00
51928;BME280;37953;52.806;18.270;2022-12-11T11:06:17;99669.03;;;-0.30;100.00
51928;BME280;37953;52.806;18.270;2022-12-11T11:08:46;99668.94;;;-0.33;100.00
51928;BME280;37953;52.806;18.270;2022-12-11T11:11:24;99668.84;;;-0.36;100.00
51928;BME280;37953;52.806;18.270;2022-12-11T11:14:21;99660.31;;;-0.36;100.00
51928;BME280;37953;52.806;18.270;2022-12-11T11:16:54;99661.91;;;-0.40;100.00
51928;BME280;37953;52.806;18.270;2022-12-11T11:19:32;99657.59;;;-0.41;100.00
51928;BME280;37953;52.806;18.270;2022-12-11T11:22:17;99655.88;;;-0.42;100.00
51928;BME280;37953;52.806;18.270;2022-12-11T11:24:57;99649.03;;;-0.43;100.00
51928;BME280;37953;52.806;18.270;2022-12-11T11:27:43;99636.97;;;-0.47;100.00
51928;BME280;37953;52.806;18.270;2022-12-11T11:32:43;99648.94;;;-0.46;100.00
51928;BME280;37953;52.806;18.270;2022-12-11T11:37:37;99637.03;;;-0.46;100.00
51928;BME280;37953;52.806;18.270;2022-12-11T11:40:24;99642.22;;;-0.44;100.00
51928;BME280;37953;52.806;18.270;2022-12-11T11:50:53;99646.59;;;-0.40;100.00
51928;BME280;37953;52.806;18.270;2022-12-11T11:53:30;99644.06;;;-0.38;100.00
51928;BME280;37953;52.806;18.270;2022-12-11T11:56:17;99633.06;;;-0.37;100.00
51928;BME280;37953;52.806;18.270;2022-12-11T12:01:21;99632.09;;;-0.41;100.00
51928;BME280;37953;52.806;18.270;2022-12-11T12:03:48;99626.97;;;-0.41;100.00
51928;BME280;37953;52.806;18.270;2022-12-11T12:06:27;99622.75;;;-0.41;100.00
51928;BME280;37953;52.806;18.270;2022-12-11T12:11:47;99618.53;;;-0.40;100.00
51928;BME280;37953;52.806;18.270;2022-12-11T12:14:57;99613.44;;;-0.40;100.00
51928;BME280;37953;52.806;18.270;2022-12-11T12:17:52;99614.34;;;-0.38;100.00
51928;BME280;37953;52.806;18.270;2022-12-11T12:20:50;99610.91;;;-0.38;100.00
51928;BME280;37953;52.806;18.270;2022-12-11T12:26:30;99603.22;;;-0.40;100.00
51928;BME280;37953;52.806;18.270;2022-12-11T12:34:50;99605.78;;;-0.40;100.00
51928;BME280;37953;52.806;18.270;2022-12-11T12:45:57;99602.31;;;-0.42;100.00
51928;BME280;37953;52.806;18.270;2022-12-11T12:48:26;99603.03;;;-0.45;100.00
51928;BME280;37953;52.806;18.270;2022-12-11T12:50:53;99598.84;;;-0.44;100.00
51928;BME280;37953;52.806;18.270;2022-12-11T12:53:26;99593.72;;;-0.44;100.00
51928;BME280;37953;52.806;18.270;2022-12-11T12:55:53;99590.19;;;-0.48;100.00
51928;BME280;37953;52.806;18.270;2022-12-11T13:01:16;99588.66;;;-0.43;100.00
51928;BME280;37953;52.806;18.270;2022-12-11T13:03:52;99594.59;;;-0.44;100.00
51928;BME280;37953;52.806;18.270;2022-12-11T13:09:29;99592.97;;;-0.42;100.00
51928;BME280;37953;52.806;18.270;2022-12-11T13:11:56;99585.97;;;-0.47;100.00
51928;BME280;37953;52.806;18.270;2022-12-11T13:14:33;99601.41;;;-0.43;100.00
51928;BME280;37953;52.806;18.270;2022-12-11T13:19:36;99598.06;;;-0.42;100.00
51928;BME280;37953;52.806;18.270;2022-12-11T13:22:23;99596.44;;;-0.39;100.00
51928;BME280;37953;52.806;18.270;2022-12-11T13:32:43;99589.44;;;-0.45;100.00
51928;BME280;37953;52.806;18.270;2022-12-11T13:35:15;99597.03;;;-0.47;100.00
51928;BME280;37953;52.806;18.270;2022-12-11T13:37:43;99586.06;;;-0.44;100.00
51928;BME280;37953;52.806;18.270;2022-12-11T13:40:26;99591.97;;;-0.45;100.00
51928;BME280;37953;52.806;18.270;2022-12-11T13:42:58;99585.16;;;-0.46;100.00
51928;BME280;37953;52.806;18.270;2022-12-11T13:45:53;99585.16;;;-0.46;100.00
51928;BME280;37953;52.806;18.270;2022-12-11T13:51:07;99586.66;;;-0.53;100.00
51928;BME280;37953;52.806;18.270;2022-12-11T13:53:33;99590.00;;;-0.54;100.00
51928;BME280;37953;52.806;18.270;2022-12-11T13:56:04;99599.41;;;-0.53;100.00
51928;BME280;37953;52.806;18.270;2022-12-11T13:58:37;99594.19;;;-0.56;100.00
51928;BME280;37953;52.806;18.270;2022-12-11T14:01:26;99594.25;;;-0.54;100.00
51928;BME280;37953;52.806;18.270;2022-12-11T14:04:05;99587.34;;;-0.57;100.00
51928;BME280;37953;52.806;18.270;2022-12-11T14:06:33;99600.06;;;-0.58;100.00
51928;BME280;37953;52.806;18.270;2022-12-11T14:09:07;99595.81;;;-0.58;100.00
51928;BME280;37953;52.806;18.270;2022-12-11T14:11:36;99605.16;;;-0.58;100.00
51928;BME280;37953;52.806;18.270;2022-12-11T14:14:26;99600.91;;;-0.58;100.00
51928;BME280;37953;52.806;18.270;2022-12-11T14:16:53;99603.41;;;-0.59;100.00
51928;BME280;37953;52.806;18.270;2022-12-11T14:19:34;99600.00;;;-0.60;100.00
51928;BME280;37953;52.806;18.270;2022-12-11T14:22:02;99594.88;;;-0.60;100.00
51928;BME280;37953;52.806;18.270;2022-12-11T14:24:29;99589.78;;;-0.60;100.00
51928;BME280;37953;52.806;18.270;2022-12-11T14:26:56;99587.25;;;-0.60;100.00
51928;BME280;37953;52.806;18.270;2022-12-11T14:29:28;99584.69;;;-0.60;100.00
51928;BME280;37953;52.806;18.270;2022-12-11T14:32:00;99581.13;;;-0.65;100.00
51928;BME280;37953;52.806;18.270;2022-12-11T14:34:43;99577.75;;;-0.64;100.00
51928;BME280;37953;52.806;18.270;2022-12-11T14:37:13;99568.38;;;-0.65;100.00
51928;BME280;37953;52.806;18.270;2022-12-11T14:39:55;99571.69;;;-0.68;100.00
51928;BME280;37953;52.806;18.270;2022-12-11T14:42:29;99571.72;;;-0.66;100.00
51928;BME280;37953;52.806;18.270;2022-12-11T14:47:41;99565.91;;;-0.62;100.00
51928;BME280;37953;52.806;18.270;2022-12-11T14:52:59;99565.13;;;-0.61;100.00